Terminal Aerodrome Forecast
Issued by NWS Jackson, MS

Home | Current Version | Previous Version | Text Only | Print | Product List | Glossary On
Versions: 1 2 3 4 5 6 7 8 9 10 11 12 13 14 15
000
FTUS44 KJAN 270520
TAFHBG
TAF
KHBG 270520Z 2706/2806 15004KT P6SM OVC250
     FM271000 15003KT 4SM BR OVC015
     FM271400 14007KT P6SM OVC025
     FM271600 16013G20KT P6SM BKN035
     FM280000 16007KT P6SM BKN250=

USA.gov is the U.S. government's official web portal to all federal, state and local government web resources and services.